Latest Coastal Weather Observations for Aireys Inlet

IDV60701

Issued at 11:21 am EDT Friday 27 February 2015 (issued every 10 minutes, with the page automatically refreshed every 10 minutes)

About coastal observations | Map of coastal stations | Coastal observations for VIC | Marine services | Other Formats
Station Details ID: 090180 Name: AIREYS INLET Lat: -38.46 Lon: 144.09 Height: 95.0 m
Data from the previous 72 hours. | See also: Recent months at Aireys Inlet
Date/Time
EDT
Temp

°C
Wind Pressure Rain
since 9am
mm
Weather Cloud Vis
km
Sea
Height
m
Swell
Dir
 
Speed
knots
Gust
knots
hPa Trend Height
m
Period
s
Dir
27/11:00am 20.1 S 5 9 - - 0.0 - - - - - - -
27/10:30am 19.7 SSW 5 8 - - 0.0 - - - - - - -
27/10:00am 19.2 SW 4 7 - - 0.0 - - - - - - -
27/09:30am 18.1 SW 4 6 - - 0.0 - - - - - - -
27/09:00am 17.4 SW 4 5 - - 0.0 - - - - - - -
27/08:30am 16.5 WSW 3 6 - - 0.0 - - - - - - -
27/08:00am 15.5 W 1 2 - - 0.0 - - - - - - -
27/07:30am 14.9 W 3 4 - - 0.0 - - - - - - -
27/07:00am 14.7 NNW 2 3 - - 0.0 - - - - - - -
27/06:30am 14.5 NNW 4 6 - - 0.0 - - - - - - -
27/06:00am 15.0 WNW 3 3 - - 0.0 - - - - - - -
27/05:30am 15.6 SSW 2 3 - - 0.0 - - - - - - -
27/05:00am 15.6 W 2 2 - - 0.0 - - - - - - -
27/04:30am 15.9 W 3 5 - - 0.0 - - - - - - -
27/04:00am 16.1 WSW 6 8 - - 0.0 - - - - - - -
27/03:30am 15.9 WNW 5 7 - - 0.0 - - - - - - -
27/03:00am 16.2 NNW 5 7 - - 0.0 - - - - - - -
27/02:30am 16.7 WNW 5 6 - - 0.0 - - - - - - -
27/02:00am 16.9 W 3 4 - - 0.0 - - - - - - -
27/01:30am 16.9 WNW 5 7 - - 0.0 - - - - - - -
27/01:00am 16.8 NNW 5 7 - - 0.0 - - - - - - -
27/12:30am 16.8 NW 5 6 - - 0.0 - - - - - - -
27/12:00am 17.2 WNW 4 5 - - 0.0 - - - - - - -
 
Date/Time
EDT
Temp

°C
Wind Pressure Rain
since 9am
mm
Weather Cloud Vis
km
Sea
Height
m
Swell
Dir
 
Speed
knots
Gust
knots
hPa Trend Height
m
Period
s
Dir
26/11:30pm 17.2 WNW 4 5 - - 0.0 - - - - - - -
26/11:00pm 17.3 WSW 5 7 - - 0.0 - - - - - - -
26/10:30pm 17.4 WSW 5 7 - - 0.0 - - - - - - -
26/10:00pm 17.8 SSW 6 10 - - 0.0 - - - - - - -
26/09:30pm 17.8 SSW 10 15 - - 0.0 - - - - - - -
26/09:00pm 17.5 SSW 11 16 - - 0.0 - - - - - - -
26/08:30pm 17.6 SSW 11 16 - - 0.0 - - - - - - -
26/08:00pm 17.6 SSW 10 15 - - 0.0 - - - - - - -
26/07:30pm 17.8 SSW 12 16 - - 0.0 - - - - - - -
26/07:00pm 18.3 SSW 11 16 - - 0.0 - - - - - - -
26/06:30pm 19.9 SSW 10 16 - - 0.0 - - - - - - -
26/06:00pm 20.5 SSW 11 15 - - 0.0 - - - - - - -
26/05:30pm 20.9 SSW 10 15 - - 0.0 - - - - - - -
26/05:00pm 20.9 SSW 9 15 - - 0.0 - - - - - - -
26/04:30pm 20.5 S 10 16 - - 0.0 - - - - - - -
26/04:00pm 19.4 SSW 11 16 - - 0.0 - - - - - - -
26/03:30pm 21.7 SSW 12 18 - - 0.0 - - - - - - -
26/03:00pm 21.1 SSW 12 19 - - 0.0 - - - - - - -
26/02:30pm 20.5 SSW 11 17 - - 0.0 - - - - - - -
26/02:00pm 21.9 SSW 11 16 - - 0.0 - - - - - - -
26/01:30pm 20.9 SSW 8 14 - - 0.0 - - - - - - -
26/01:00pm 20.0 SSW 9 14 - - 0.0 - - - - - - -
26/12:30pm 19.6 SSW 9 15 - - 0.0 - - - - - - -
26/12:00pm 19.6 SSW 9 14 - - 0.0 - - - - - - -
26/11:30am 19.8 SSW 10 15 - - 0.0 - - - - - - -
26/11:00am 20.1 SSW 7 12 - - 0.0 - - - - - - -
26/10:30am 19.5 SSW 4 7 - - 0.0 - - - - - - -
26/10:00am 19.1 SSW 2 4 - - 0.0 - - - - - - -
26/09:30am 18.5 WNW 2 4 - - 0.0 - - - - - - -
26/09:00am 17.7 W 2 4 - - 0.2 - - - - - - -
26/08:30am 17.4 W 3 4 - - 0.2 - - - - - - -
26/08:00am 16.5 WNW 6 7 - - 0.2 - - - - - - -
26/07:30am 16.2 WNW 8 9 - - 0.2 - - - - - - -
26/07:00am 15.9 WNW 6 9 - - 0.2 - - - - - - -
26/06:30am 16.0 W 5 7 - - 0.2 - - - - - - -
26/06:00am 16.3 WNW 5 6 - - 0.0 - - - - - - -
26/05:30am 16.2 NW 4 5 - - 0.0 - - - - - - -
26/05:00am 15.9 NW 6 8 - - 0.0 - - - - - - -
26/04:30am 16.4 NW 6 8 - - 0.0 - - - - - - -
26/04:00am 16.4 NW 6 9 - - 0.0 - - - - - - -
26/03:30am 17.4 WNW 9 11 - - 0.0 - - - - - - -
26/03:00am 17.1 W 5 7 - - 0.0 - - - - - - -
26/02:30am 16.8 W 4 6 - - 0.0 - - - - - - -
26/02:00am 16.7 NW 5 6 - - 0.0 - - - - - - -
26/01:30am 16.6 NW 2 4 - - 0.0 - - - - - - -
26/01:00am 16.4 NW 3 4 - - 0.0 - - - - - - -
26/12:30am 16.8 W 5 6 - - 0.0 - - - - - - -
26/12:00am 16.5 WNW 3 4 - - 0.0 - - - - - - -
 
Date/Time
EDT
Temp

°C
Wind Pressure Rain
since 9am
mm
Weather Cloud Vis
km
Sea
Height
m
Swell
Dir
 
Speed
knots
Gust
knots
hPa Trend Height
m
Period
s
Dir
25/11:30pm 17.3 W 5 6 - - 0.0 - - - - - - -
25/11:00pm 17.4 W 4 5 - - 0.0 - - - - - - -
25/10:30pm 17.4 WSW 6 8 - - 0.0 - - - - - - -
25/10:00pm 17.6 WSW 7 10 - - 0.0 - - - - - - -
25/09:30pm 17.6 WSW 7 9 - - 0.0 - - - - - - -
25/09:00pm 17.8 SW 6 8 - - 0.0 - - - - - - -
25/08:30pm 18.2 SW 6 9 - - 0.0 - - - - - - -
25/08:00pm 18.7 SW 7 10 - - 0.0 - - - - - - -
25/07:30pm 19.7 SW 5 8 - - 0.0 - - - - - - -
25/07:00pm 20.9 SSW 6 9 - - 0.0 - - - - - - -
25/06:30pm 21.5 SW 8 12 - - 0.0 - - - - - - -
25/06:00pm 21.7 SSW 5 9 - - 0.0 - - - - - - -
25/05:30pm 20.9 SE 3 6 - - 0.0 - - - - - - -
25/05:00pm 21.1 SE 6 10 - - 0.0 - - - - - - -
25/04:30pm 20.9 SE 5 8 - - 0.0 - - - - - - -
25/04:00pm 21.2 ESE 6 11 - - 0.0 - - - - - - -
25/03:30pm 21.9 SE 5 10 - - 0.0 - - - - - - -
25/03:00pm 20.8 SE 6 9 - - 0.0 - - - - - - -
25/02:30pm 20.3 SE 8 12 - - 0.0 - - - - - - -
25/02:00pm 20.8 ESE 10 16 - - 0.0 - - - - - - -
25/01:30pm 20.8 SE 9 16 - - 0.0 - - - - - - -
25/01:00pm 20.1 ESE 8 14 - - 0.0 - - - - - - -
25/12:30pm 19.2 ESE 9 14 - - 0.0 - - - - - - -
25/12:00pm 19.0 ESE 10 15 - - 0.0 - - - - - - -
25/11:30am 18.4 ESE 9 15 - - 0.0 - - - - - - -
25/11:00am 18.1 ESE 8 14 - - 0.0 - - - - - - -
25/10:30am 17.7 E 10 16 - - 0.0 - - - - - - -
25/10:00am 17.5 E 9 15 - - 0.0 - - - - - - -
25/09:30am 17.5 E 11 17 - - 0.0 - - - - - - -
25/09:00am 17.3 ESE 11 18 - - 0.2 - - - - - - -
25/08:30am 17.3 ESE 12 20 - - 0.2 - - - - - - -
25/08:00am 17.3 ESE 12 20 - - 0.2 - - - - - - -
25/07:30am 17.3 ESE 10 19 - - 0.2 - - - - - - -
25/07:00am 17.2 ESE 11 19 - - 0.2 - - - - - - -
25/06:30am 17.3 ESE 11 18 - - 0.2 - - - - - - -
25/06:00am 17.2 ESE 10 17 - - 0.2 Recent precip. - - - - - -
25/05:30am 16.9 ESE 12 18 - - 0.2 - - - - - - -
25/05:00am 17.1 ESE 9 16 - - 0.0 - - - - - - -
25/04:30am 17.1 ESE 11 23 - - 0.0 - - - - - - -
25/04:00am 16.5 ESE 10 18 - - 0.0 - - - - - - -
25/03:30am 16.7 ESE 12 20 - - 0.0 - - - - - - -
25/03:00am 16.6 SE 10 21 - - 0.0 - - - - - - -
25/02:30am 17.0 SE 11 19 - - 0.0 - - - - - - -
25/02:00am 17.1 ESE 11 18 - - 0.0 - - - - - - -
25/01:30am 16.9 ESE 10 17 - - 0.0 - - - - - - -
25/01:00am 16.8 ESE 9 15 - - 0.0 - - - - - - -
25/12:30am 16.8 SE 9 14 - - 0.0 - - - - - - -
25/12:00am 16.6 S 10 16 - - 0.0 - - - - - - -
 
Date/Time
EDT
Temp

°C
Wind Pressure Rain
since 9am
mm
Weather Cloud Vis
km
Sea
Height
m
Swell
Dir
 
Speed
knots
Gust
knots
hPa Trend Height
m
Period
s
Dir
24/11:30pm 16.2 S 11 15 - - 0.0 - - - - - - -
24/11:00pm 16.4 S 13 18 - - 0.0 - - - - - - -
24/10:30pm 16.1 SSE 11 19 - - 0.0 - - - - - - -
24/10:00pm 16.5 S 13 20 - - 0.0 - - - - - - -
24/09:30pm 16.3 S 13 18 - - 0.0 - - - - - - -
24/09:00pm 16.2 S 13 19 - - 0.0 - - - - - - -
24/08:30pm 16.1 S 12 17 - - 0.0 - - - - - - -
24/08:00pm 16.1 S 12 18 - - 0.0 - - - - - - -
24/07:30pm 16.2 S 11 18 - - 0.0 - - - - - - -
24/07:00pm 16.9 S 10 15 - - 0.0 - - - - - - -
24/06:30pm 17.8 S 12 16 - - 0.0 - - - - - - -
24/06:00pm 16.9 S 11 17 - - 0.0 - - - - - - -
24/05:30pm 18.8 S 12 18 - - 0.0 - - - - - - -
24/05:00pm 18.8 S 12 19 - - 0.0 - - - - - - -
24/04:30pm 18.1 S 11 19 - - 0.0 - - - - - - -
24/04:00pm 18.1 S 12 20 - - 0.0 - - - - - - -
24/03:30pm 18.3 S 14 19 - - 0.0 - - - - - - -
24/03:00pm 19.0 S 13 19 - - 0.0 - - - - - - -
24/02:30pm 19.1 S 13 18 - - 0.0 - - - - - - -
24/02:00pm 18.5 S 12 18 - - 0.0 - - - - - - -
24/01:30pm 16.8 S 11 18 - - 0.0 - - - - - - -
24/01:00pm 17.0 S 14 19 - - 0.0 - - - - - - -
24/12:30pm 18.2 S 13 19 - - 0.0 - - - - - - -
24/12:00pm 16.8 S 12 18 - - 0.0 - - - - - - -
24/11:30am 17.9 S 11 17 - - 0.0 - - - - - - -

Other Formats:

Comma delimited format used in spreadsheet applications
http://www.bom.gov.au/fwo/IDV60701/IDV60701.94846.axf

JavaScript Object Notation format (JSON) in row-major order
http://www.bom.gov.au/fwo/IDV60701/IDV60701.94846.json